createdAt,value
2022-09-14T00:01:26.326Z,25.00
2022-09-14T00:04:00.981Z,25.00
2022-09-14T00:06:29.268Z,24.95
2022-09-14T00:08:58.600Z,24.93
2022-09-14T00:11:27.716Z,24.91
2022-09-14T00:13:56.518Z,24.91
2022-09-14T00:18:58.375Z,24.87
2022-09-14T00:21:25.813Z,24.85
2022-09-14T00:23:53.420Z,24.84
2022-09-14T00:26:22.979Z,24.84
2022-09-14T00:28:52.533Z,24.83
2022-09-14T00:31:20.458Z,24.82
2022-09-14T00:33:48.871Z,24.77
2022-09-14T00:36:21.642Z,24.78
2022-09-14T00:38:49.060Z,24.78
2022-09-14T00:41:22.241Z,24.82
2022-09-14T00:44:13.010Z,24.83
2022-09-14T00:46:53.360Z,24.88
2022-09-14T00:49:39.770Z,24.93
2022-09-14T00:52:20.759Z,24.95
2022-09-14T00:54:57.605Z,24.96
2022-09-14T00:57:28.125Z,24.94
2022-09-14T00:59:56.444Z,24.93
2022-09-14T01:02:26.129Z,24.94
2022-09-14T01:04:53.524Z,24.90
2022-09-14T01:07:44.458Z,24.87
2022-09-14T01:10:48.941Z,24.83
2022-09-14T01:13:31.013Z,24.80
2022-09-14T01:16:18.401Z,24.77
2022-09-14T01:18:48.396Z,24.75
2022-09-14T01:21:21.836Z,24.78
2022-09-14T01:24:23.033Z,24.80
2022-09-14T01:27:08.112Z,24.80
2022-09-14T01:30:01.162Z,24.79
2022-09-14T01:32:33.159Z,24.75
2022-09-14T01:35:23.871Z,24.73
2022-09-14T01:38:12.083Z,24.72
2022-09-14T01:40:43.003Z,24.72
2022-09-14T01:43:12.646Z,24.72
2022-09-14T01:45:44.398Z,24.70
2022-09-14T01:48:13.717Z,24.70
2022-09-14T01:50:45.328Z,24.70
2022-09-14T01:53:30.177Z,24.72
2022-09-14T01:56:15.636Z,24.73
2022-09-14T01:58:50.815Z,24.70
2022-09-14T02:01:25.236Z,24.70
2022-09-14T02:04:03.010Z,24.71
2022-09-14T02:06:38.272Z,24.71
2022-09-14T02:09:08.552Z,24.68
2022-09-14T02:11:35.917Z,24.66
2022-09-14T02:14:03.313Z,24.67
2022-09-14T02:16:31.137Z,24.67
2022-09-14T02:19:01.871Z,24.66
2022-09-14T02:21:32.522Z,24.65
2022-09-14T02:24:00.663Z,24.65
2022-09-14T02:26:28.740Z,24.64
2022-09-14T02:28:57.129Z,24.63
2022-09-14T02:31:39.184Z,24.64
2022-09-14T02:34:40.039Z,24.65
2022-09-14T02:37:31.127Z,24.65
2022-09-14T02:40:05.693Z,24.65
2022-09-14T02:42:37.504Z,24.64
2022-09-14T02:45:22.275Z,24.62
2022-09-14T02:48:12.542Z,24.61
2022-09-14T02:50:55.485Z,24.59
2022-09-14T02:53:40.451Z,24.61
2022-09-14T02:56:10.466Z,24.62
2022-09-14T02:58:40.724Z,24.62
2022-09-14T03:01:09.991Z,24.62
2022-09-14T03:03:37.444Z,24.62
2022-09-14T03:06:04.691Z,24.63
2022-09-14T03:08:32.725Z,24.66
2022-09-14T03:10:59.844Z,24.71
2022-09-14T03:13:27.177Z,24.74
2022-09-14T03:15:54.329Z,24.71
2022-09-14T03:18:21.403Z,24.69
2022-09-14T03:20:48.535Z,24.69
2022-09-14T03:23:15.806Z,24.74
2022-09-14T03:25:44.824Z,24.79
2022-09-14T03:28:13.227Z,24.83
2022-09-14T03:30:40.342Z,24.84
2022-09-14T03:33:07.485Z,24.85
2022-09-14T03:35:35.338Z,24.87
2022-09-14T03:38:03.566Z,24.89
2022-09-14T03:40:31.248Z,24.93
2022-09-14T03:42:58.923Z,24.94
2022-09-14T03:45:26.095Z,24.95
2022-09-14T03:47:53.114Z,24.96
2022-09-14T03:50:21.627Z,24.97
2022-09-14T03:52:49.057Z,24.95
2022-09-14T03:55:16.619Z,24.90
2022-09-14T03:57:43.772Z,24.86
2022-09-14T04:00:11.902Z,24.83
2022-09-14T04:02:39.922Z,24.84
2022-09-14T04:05:08.000Z,24.81
2022-09-14T04:07:35.776Z,24.78
2022-09-14T04:10:03.178Z,24.75
2022-09-14T04:12:35.156Z,24.72
2022-09-14T04:15:02.341Z,24.69
2022-09-14T04:17:30.125Z,24.68
2022-09-14T04:19:57.244Z,24.64
2022-09-14T04:22:24.356Z,24.61
2022-09-14T04:24:51.580Z,24.56
2022-09-14T04:27:18.688Z,24.52
2022-09-14T04:29:45.947Z,24.48
2022-09-14T04:32:13.682Z,24.44
2022-09-14T04:34:40.726Z,24.43
2022-09-14T04:37:07.789Z,24.42
2022-09-14T04:39:34.873Z,24.38
2022-09-14T04:42:01.979Z,24.36
2022-09-14T04:44:29.179Z,24.35
2022-09-14T04:46:56.300Z,24.35
2022-09-14T04:49:23.417Z,24.31
2022-09-14T04:51:50.752Z,24.28
2022-09-14T04:54:18.828Z,24.26
2022-09-14T04:56:46.281Z,24.26
2022-09-14T04:59:13.584Z,24.26
2022-09-14T05:01:46.081Z,24.25
2022-09-14T05:04:13.369Z,24.22
2022-09-14T05:06:42.488Z,24.21
2022-09-14T05:09:15.420Z,24.18
2022-09-14T05:11:42.971Z,24.16
2022-09-14T05:14:13.388Z,24.14
2022-09-14T05:16:42.602Z,24.13
2022-09-14T05:19:13.651Z,24.12
2022-09-14T05:21:40.736Z,24.12
2022-09-14T05:24:13.216Z,24.14
2022-09-14T05:26:40.369Z,24.15
2022-09-14T05:29:07.523Z,24.19
2022-09-14T05:31:35.044Z,24.21
2022-09-14T05:34:02.210Z,24.22
2022-09-14T05:36:29.420Z,24.25
2022-09-14T05:38:58.286Z,24.26
2022-09-14T05:41:25.396Z,24.23
2022-09-14T05:43:52.480Z,24.25
2022-09-14T05:46:22.825Z,24.26
2022-09-14T05:48:52.029Z,24.25
2022-09-14T05:51:24.310Z,24.26
2022-09-14T05:53:53.082Z,24.27
2022-09-14T05:56:21.459Z,24.29
2022-09-14T05:58:49.408Z,24.29
2022-09-14T06:01:22.833Z,24.27
2022-09-14T06:03:50.867Z,24.28
2022-09-14T06:06:19.563Z,24.27
2022-09-14T06:08:50.542Z,24.23
2022-09-14T06:11:20.029Z,24.22
2022-09-14T06:13:47.588Z,24.18
2022-09-14T06:16:17.655Z,24.16
2022-09-14T06:18:46.145Z,24.11
2022-09-14T06:21:18.090Z,24.06
2022-09-14T06:23:46.133Z,24.04
2022-09-14T06:26:13.826Z,24.02
2022-09-14T06:28:41.604Z,23.99
2022-09-14T06:31:11.885Z,23.98
2022-09-14T06:33:39.019Z,23.99
2022-09-14T06:36:12.930Z,24.00
2022-09-14T06:38:41.320Z,24.01
2022-09-14T06:41:10.331Z,24.06
2022-09-14T06:43:39.444Z,24.08
2022-09-14T06:46:12.631Z,24.11
2022-09-14T06:48:47.433Z,24.12
2022-09-14T06:51:24.102Z,24.16
2022-09-14T06:53:52.263Z,24.18
2022-09-14T06:56:19.835Z,24.19
2022-09-14T06:58:47.068Z,24.20
2022-09-14T07:01:16.303Z,24.24
2022-09-14T07:03:44.990Z,24.27
2022-09-14T07:06:15.422Z,24.31
2022-09-14T07:08:43.627Z,24.33
2022-09-14T07:11:12.440Z,24.34
2022-09-14T07:13:40.090Z,24.34
2022-09-14T07:16:08.506Z,24.34
2022-09-14T07:18:36.625Z,24.36
2022-09-14T07:21:08.000Z,24.40
2022-09-14T07:23:37.200Z,24.42
2022-09-14T07:26:06.192Z,24.43
2022-09-14T07:28:33.998Z,24.47
2022-09-14T07:31:02.198Z,24.52
2022-09-14T07:33:30.242Z,24.54
2022-09-14T07:36:11.990Z,24.56
2022-09-14T07:38:55.087Z,24.58
2022-09-14T07:41:24.955Z,24.61
2022-09-14T07:43:53.892Z,24.64
2022-09-14T07:46:22.120Z,24.67
2022-09-14T07:48:54.563Z,24.67
2022-09-14T07:51:22.471Z,24.67
2022-09-14T07:53:49.548Z,24.69
2022-09-14T07:56:19.738Z,24.72
2022-09-14T07:58:48.145Z,24.75
2022-09-14T08:01:21.296Z,24.76
2022-09-14T08:03:49.280Z,24.81
2022-09-14T08:06:29.376Z,24.84
2022-09-14T08:08:57.173Z,24.86
2022-09-14T08:14:01.151Z,24.96
2022-09-14T08:16:30.339Z,25.02
2022-09-14T08:19:07.286Z,25.04
2022-09-14T08:21:35.894Z,25.08
2022-09-14T08:24:04.594Z,25.12
2022-09-14T08:26:32.132Z,25.17
2022-09-14T08:29:02.459Z,25.22
2022-09-14T08:31:29.928Z,25.28
2022-09-14T08:34:02.979Z,25.36
2022-09-14T08:36:34.289Z,25.41
2022-09-14T08:39:02.229Z,25.47
2022-09-14T08:41:38.370Z,25.47
2022-09-14T08:44:53.402Z,25.40
2022-09-14T08:47:37.316Z,25.40
2022-09-14T08:50:10.009Z,25.32
2022-09-14T08:52:39.127Z,25.32
2022-09-14T08:55:30.781Z,25.36
2022-09-14T08:58:15.969Z,25.41
2022-09-14T09:00:48.211Z,25.45
2022-09-14T09:03:31.041Z,25.49
2022-09-14T09:06:01.373Z,25.44
2022-09-14T09:09:16.367Z,25.50
2022-09-14T09:11:47.155Z,25.64
2022-09-14T09:14:24.378Z,25.74
2022-09-14T09:16:55.308Z,25.70
2022-09-14T09:19:29.336Z,25.66
2022-09-14T09:21:57.724Z,25.54
2022-09-14T09:24:27.562Z,25.53
2022-09-14T09:26:54.777Z,25.55
2022-09-14T09:29:22.375Z,25.65
2022-09-14T09:31:54.059Z,25.71
2022-09-14T09:34:29.961Z,25.78
2022-09-14T09:36:57.363Z,25.82
2022-09-14T09:39:24.829Z,25.96
2022-09-14T09:42:06.883Z,26.03
2022-09-14T09:45:01.290Z,26.03
2022-09-14T09:47:42.497Z,25.98
2022-09-14T09:50:21.956Z,25.93
2022-09-14T09:52:55.113Z,25.93
2022-09-14T09:55:26.833Z,25.86
2022-09-14T09:57:55.093Z,25.91
2022-09-14T10:00:31.102Z,25.89
2022-09-14T10:02:58.512Z,25.79
2022-09-14T10:05:32.933Z,25.79
2022-09-14T10:08:10.734Z,25.88
2022-09-14T10:10:43.244Z,26.01
2022-09-14T10:13:30.261Z,26.04
2022-09-14T10:16:34.626Z,26.01
2022-09-14T10:19:03.592Z,25.97
2022-09-14T10:21:31.839Z,25.87
2022-09-14T10:24:20.494Z,25.89
2022-09-14T10:26:47.599Z,25.92
2022-09-14T10:29:29.131Z,25.88
2022-09-14T10:32:01.634Z,25.85
2022-09-14T10:34:29.543Z,25.95
2022-09-14T10:37:51.005Z,25.95
2022-09-14T10:40:33.426Z,25.93
2022-09-14T10:43:12.257Z,25.81
2022-09-14T10:45:53.151Z,25.77
2022-09-14T10:48:57.695Z,25.81
2022-09-14T10:51:32.995Z,25.74
2022-09-14T10:54:33.179Z,25.79
2022-09-14T10:57:29.005Z,25.87
2022-09-14T11:00:02.492Z,25.87
2022-09-14T11:03:11.411Z,25.91
2022-09-14T11:05:47.980Z,25.86
2022-09-14T11:08:33.733Z,25.73
2022-09-14T11:11:12.645Z,25.58
2022-09-14T11:13:51.747Z,25.52
2022-09-14T11:16:44.659Z,25.61
2022-09-14T11:19:26.577Z,25.70
2022-09-14T11:22:20.849Z,25.72
2022-09-14T11:24:55.242Z,25.59
2022-09-14T11:27:41.076Z,25.64
2022-09-14T11:30:18.998Z,25.63
2022-09-14T11:33:03.496Z,25.64
2022-09-14T11:35:43.833Z,25.66
2022-09-14T11:38:20.536Z,25.64
2022-09-14T11:41:01.621Z,25.83
2022-09-14T11:43:37.761Z,25.91
2022-09-14T11:46:18.032Z,26.00
2022-09-14T11:49:25.417Z,26.01
2022-09-14T11:51:54.550Z,26.07
2022-09-14T11:54:23.818Z,26.10
2022-09-14T11:56:56.238Z,26.17
2022-09-14T11:59:34.962Z,26.16
2022-09-14T12:02:43.281Z,26.24
2022-09-14T12:05:10.986Z,26.14
2022-09-14T12:07:47.143Z,26.09
2022-09-14T12:10:14.283Z,25.99
2022-09-14T12:12:45.842Z,25.96
2022-09-14T12:15:27.816Z,26.01
2022-09-14T12:18:06.847Z,26.13
2022-09-14T12:21:03.926Z,26.18
2022-09-14T12:23:39.981Z,26.30
2022-09-14T12:26:07.081Z,26.19
2022-09-14T12:28:39.992Z,26.23
2022-09-14T12:31:12.383Z,26.24
2022-09-14T12:33:39.419Z,26.20
2022-09-14T12:36:21.534Z,26.24
2022-09-14T12:38:52.467Z,26.17
2022-09-14T12:41:19.604Z,26.10
2022-09-14T12:43:47.691Z,26.07
2022-09-14T12:46:20.716Z,26.09
2022-09-14T12:48:48.193Z,26.18
2022-09-14T12:51:27.271Z,26.26
2022-09-14T12:54:09.481Z,26.34
2022-09-14T12:56:45.508Z,26.45
2022-09-14T12:59:36.810Z,26.58
2022-09-14T13:02:41.388Z,26.63
2022-09-14T13:05:16.083Z,26.80
2022-09-14T13:07:43.527Z,26.73
2022-09-14T13:10:20.503Z,26.76
2022-09-14T13:12:49.287Z,26.97
2022-09-14T13:15:26.803Z,27.15
2022-09-14T13:18:02.443Z,27.14
2022-09-14T13:20:31.761Z,27.13
2022-09-14T13:22:59.655Z,27.19
2022-09-14T13:25:33.302Z,27.22
2022-09-14T13:28:16.148Z,27.14
2022-09-14T13:30:52.994Z,27.30
2022-09-14T13:33:20.544Z,27.30
2022-09-14T13:36:05.873Z,27.49
2022-09-14T13:38:36.974Z,27.63
2022-09-14T13:41:17.716Z,27.75
2022-09-14T13:43:47.653Z,27.78
2022-09-14T13:46:19.699Z,27.75
2022-09-14T13:48:47.727Z,27.58
2022-09-14T13:51:15.709Z,27.53
2022-09-14T13:53:50.040Z,27.52
2022-09-14T13:56:28.529Z,27.56
2022-09-14T13:59:07.928Z,27.56
2022-09-14T14:01:59.829Z,27.45
2022-09-14T14:04:35.206Z,27.28
2022-09-14T14:07:22.512Z,27.22
2022-09-14T14:09:52.652Z,27.38
2022-09-14T14:12:31.565Z,27.48
2022-09-14T14:15:09.530Z,27.52
2022-09-14T14:17:38.914Z,27.53
2022-09-14T14:20:24.689Z,27.56
2022-09-14T14:23:11.172Z,27.62
2022-09-14T14:25:45.815Z,27.61
2022-09-14T14:28:40.620Z,27.76
2022-09-14T14:31:14.165Z,27.92
2022-09-14T14:33:47.862Z,27.82
2022-09-14T14:36:15.413Z,27.62
2022-09-14T14:38:44.526Z,27.52
2022-09-14T14:41:21.382Z,27.57
2022-09-14T14:43:51.133Z,27.68
2022-09-14T14:46:18.302Z,27.82
2022-09-14T14:48:45.665Z,27.84
2022-09-14T14:51:15.435Z,27.77
2022-09-14T14:53:43.253Z,27.70
2022-09-14T14:56:12.987Z,27.83
2022-09-14T14:58:47.787Z,27.97
2022-09-14T15:01:15.141Z,27.87
2022-09-14T15:03:42.393Z,28.40
2022-09-14T15:06:20.291Z,28.91
2022-09-14T15:08:47.412Z,29.47
2022-09-14T15:11:18.620Z,29.54
2022-09-14T15:13:46.663Z,29.42
2022-09-14T15:16:14.912Z,29.57
2022-09-14T15:18:42.277Z,29.27
2022-09-14T15:21:09.927Z,29.34
2022-09-14T15:23:37.178Z,29.35
2022-09-14T15:26:04.315Z,29.46
2022-09-14T15:28:31.489Z,29.12
2022-09-14T15:30:58.676Z,29.13
2022-09-14T15:33:25.734Z,29.23
2022-09-14T15:35:57.490Z,29.12
2022-09-14T15:38:25.408Z,29.57
2022-09-14T15:40:55.745Z,29.74
2022-09-14T15:43:23.041Z,30.35
2022-09-14T15:45:50.284Z,30.40
2022-09-14T15:48:19.027Z,30.17
2022-09-14T15:50:48.417Z,30.49
2022-09-14T15:53:17.586Z,30.56
2022-09-14T15:55:45.830Z,30.95
2022-09-14T15:58:13.088Z,31.01
2022-09-14T16:00:44.959Z,30.95
2022-09-14T16:03:12.353Z,31.05
2022-09-14T16:05:40.408Z,30.95
2022-09-14T16:08:07.852Z,31.22
2022-09-14T16:10:35.253Z,31.58
2022-09-14T16:13:02.665Z,31.12
2022-09-14T16:15:29.868Z,30.79
2022-09-14T16:17:57.041Z,31.09
2022-09-14T16:20:24.652Z,31.07
2022-09-14T16:22:52.022Z,30.88
2022-09-14T16:25:19.204Z,31.20
2022-09-14T16:27:46.709Z,31.14
2022-09-14T16:30:13.935Z,31.30
2022-09-14T16:32:41.006Z,31.09
2022-09-14T16:35:08.546Z,31.24
2022-09-14T16:37:35.827Z,31.31
2022-09-14T16:40:04.443Z,31.19
2022-09-14T16:42:31.597Z,31.20
2022-09-14T16:44:58.753Z,31.40
2022-09-14T16:47:26.121Z,31.57
2022-09-14T16:49:53.441Z,31.47
2022-09-14T16:52:20.754Z,31.34
2022-09-14T16:54:47.834Z,30.84
2022-09-14T16:57:15.035Z,30.48
2022-09-14T16:59:42.149Z,30.12
2022-09-14T17:02:11.671Z,29.88
2022-09-14T17:04:38.801Z,29.64
2022-09-14T17:07:05.979Z,29.42
2022-09-14T17:09:33.360Z,29.13
2022-09-14T17:12:00.648Z,29.01
2022-09-14T17:14:33.514Z,28.91
2022-09-14T17:17:01.107Z,29.03
2022-09-14T17:19:28.909Z,29.06
2022-09-14T17:21:56.052Z,29.28
2022-09-14T17:24:23.617Z,29.34
2022-09-14T17:26:50.914Z,29.44
2022-09-14T17:29:18.650Z,29.84
2022-09-14T17:31:46.788Z,30.02
2022-09-14T17:34:16.973Z,30.15
2022-09-14T17:36:45.093Z,30.59
2022-09-14T17:39:12.758Z,30.80
2022-09-14T17:41:41.689Z,30.95
2022-09-14T17:44:12.616Z,30.95
2022-09-14T17:46:48.575Z,31.23
2022-09-14T17:49:18.269Z,31.09
2022-09-14T17:51:45.612Z,30.94
2022-09-14T17:54:13.154Z,31.15
2022-09-14T17:56:40.675Z,31.36
2022-09-14T17:59:14.227Z,31.43
2022-09-14T18:01:41.729Z,31.00
2022-09-14T18:04:14.348Z,30.46
2022-09-14T18:06:44.196Z,30.16
2022-09-14T18:09:17.615Z,29.93
2022-09-14T18:11:45.415Z,30.33
2022-09-14T18:14:15.975Z,30.48
2022-09-14T18:16:44.065Z,30.22
2022-09-14T18:19:11.748Z,29.77
2022-09-14T18:21:39.264Z,29.51
2022-09-14T18:24:06.953Z,29.14
2022-09-14T18:26:34.619Z,28.89
2022-09-14T18:29:03.458Z,28.81
2022-09-14T18:31:31.015Z,28.61
2022-09-14T18:33:59.702Z,28.42
2022-09-14T18:36:29.209Z,28.33
2022-09-14T18:38:57.594Z,28.14
2022-09-14T18:41:25.022Z,28.13
2022-09-14T18:43:53.780Z,27.92
2022-09-14T18:46:24.632Z,27.98
2022-09-14T18:48:57.112Z,27.78
2022-09-14T18:51:24.337Z,27.43
2022-09-14T18:54:00.427Z,27.30
2022-09-14T18:56:28.385Z,27.19
2022-09-14T18:58:56.113Z,27.11
2022-09-14T19:01:23.438Z,27.24
2022-09-14T19:03:50.686Z,27.22
2022-09-14T19:06:19.162Z,27.13
2022-09-14T19:08:47.199Z,27.11
2022-09-14T19:11:17.890Z,27.12
2022-09-14T19:13:45.724Z,27.07
2022-09-14T19:16:15.947Z,27.01
2022-09-14T19:18:44.950Z,26.92
2022-09-14T19:21:20.596Z,26.74
2022-09-14T19:23:55.388Z,26.72
2022-09-14T19:26:22.547Z,26.58
2022-09-14T19:28:49.704Z,26.45
2022-09-14T19:31:20.087Z,26.40
2022-09-14T19:33:47.443Z,26.46
2022-09-14T19:36:20.271Z,26.50
2022-09-14T19:38:48.733Z,26.47
2022-09-14T19:41:16.510Z,26.39
2022-09-14T19:43:43.718Z,26.34
2022-09-14T19:46:23.754Z,26.37
2022-09-14T19:48:51.737Z,26.27
2022-09-14T19:51:21.916Z,26.18
2022-09-14T19:53:50.911Z,26.03
2022-09-14T19:56:20.647Z,25.92
2022-09-14T19:58:50.897Z,25.86
2022-09-14T20:01:20.335Z,25.91
2022-09-14T20:03:49.378Z,25.97
2022-09-14T20:06:21.460Z,25.99
2022-09-14T20:08:59.376Z,26.07
2022-09-14T20:11:28.500Z,26.08
2022-09-14T20:14:00.396Z,26.03
2022-09-14T20:16:49.051Z,25.87
2022-09-14T20:19:19.538Z,25.87
2022-09-14T20:21:48.123Z,25.95
2022-09-14T20:24:18.917Z,26.00
2022-09-14T20:26:50.578Z,26.03
2022-09-14T20:29:19.504Z,26.07
2022-09-14T20:31:47.255Z,26.10
2022-09-14T20:34:16.650Z,26.10
2022-09-14T20:36:44.198Z,26.07
2022-09-14T20:39:11.615Z,26.04
2022-09-14T20:41:39.377Z,26.01
2022-09-14T20:44:07.371Z,26.01
2022-09-14T20:46:39.981Z,26.03
2022-09-14T20:49:11.600Z,26.07
2022-09-14T20:51:39.612Z,26.06
2022-09-14T20:54:08.188Z,26.07
2022-09-14T20:56:36.062Z,26.03
2022-09-14T20:59:05.741Z,26.03
2022-09-14T21:01:36.933Z,26.00
2022-09-14T21:04:09.741Z,25.95
2022-09-14T21:06:39.567Z,25.91
2022-09-14T21:09:08.438Z,25.83
2022-09-14T21:11:35.922Z,25.83
2022-09-14T21:14:03.159Z,25.82
2022-09-14T21:16:36.045Z,25.85
2022-09-14T21:19:13.628Z,25.87
2022-09-14T21:21:41.175Z,25.87
2022-09-14T21:24:10.898Z,25.83
2022-09-14T21:26:42.533Z,25.85
2022-09-14T21:29:16.102Z,25.85
2022-09-14T21:31:44.117Z,25.85
2022-09-14T21:34:12.321Z,25.82
2022-09-14T21:36:51.237Z,25.75
2022-09-14T21:39:23.392Z,25.71
2022-09-14T21:41:55.947Z,25.68
2022-09-14T21:44:31.063Z,25.67
2022-09-14T21:46:59.112Z,25.67
2022-09-14T21:49:26.335Z,25.64
2022-09-14T21:51:53.542Z,25.55
2022-09-14T21:54:20.985Z,25.51
2022-09-14T21:56:48.361Z,25.52
2022-09-14T21:59:20.914Z,25.51
2022-09-14T22:01:49.553Z,25.53
2022-09-14T22:04:19.794Z,25.53
2022-09-14T22:06:47.931Z,25.54
2022-09-14T22:09:17.027Z,25.52
2022-09-14T22:11:44.629Z,25.55
2022-09-14T22:14:15.194Z,25.52
2022-09-14T22:16:42.820Z,25.55
2022-09-14T22:19:16.573Z,25.60
2022-09-14T22:21:44.253Z,25.60
2022-09-14T22:24:15.571Z,25.64
2022-09-14T22:26:43.130Z,25.69
2022-09-14T22:29:11.612Z,25.69
2022-09-14T22:31:40.716Z,25.69
2022-09-14T22:34:08.546Z,25.66
2022-09-14T22:36:36.239Z,25.64
2022-09-14T22:39:04.548Z,25.62
2022-09-14T22:41:32.145Z,25.62
2022-09-14T22:43:59.451Z,25.62
2022-09-14T22:46:26.914Z,25.61
2022-09-14T22:48:54.672Z,25.62
2022-09-14T22:51:26.865Z,25.58
2022-09-14T22:53:54.372Z,25.62
2022-09-14T22:56:29.526Z,25.63
2022-09-14T22:58:56.923Z,25.64
2022-09-14T23:01:30.082Z,25.66
2022-09-14T23:04:01.632Z,25.71
2022-09-14T23:06:40.073Z,25.73
2022-09-14T23:09:09.099Z,25.74
2022-09-14T23:11:36.603Z,25.74
2022-09-14T23:14:04.676Z,25.76
2022-09-14T23:16:31.989Z,25.75
2022-09-14T23:19:01.607Z,25.79
2022-09-14T23:21:30.520Z,25.80
2022-09-14T23:24:03.150Z,25.80
2022-09-14T23:26:31.462Z,25.79
2022-09-14T23:29:03.318Z,25.79
2022-09-14T23:31:31.584Z,25.79
2022-09-14T23:34:01.443Z,25.78
2022-09-14T23:36:29.917Z,25.77
2022-09-14T23:38:57.281Z,25.79
2022-09-14T23:41:26.394Z,25.75
2022-09-14T23:43:53.576Z,25.72
2022-09-14T23:46:21.772Z,25.69
2022-09-14T23:48:49.271Z,25.64
2022-09-14T23:51:16.907Z,25.63
2022-09-14T23:53:44.474Z,25.58
2022-09-14T23:56:12.104Z,25.53
2022-09-14T23:58:41.754Z,25.53
